createdAt,value
2023-02-18T00:01:41.670Z,4.60
2023-02-18T00:04:10.060Z,4.80
2023-02-18T00:06:38.918Z,4.80
2023-02-18T00:09:07.048Z,3.40
2023-02-18T00:11:35.762Z,4.10
2023-02-18T00:14:04.627Z,3.40
2023-02-18T00:16:32.558Z,3.70
2023-02-18T00:19:01.406Z,4.30
2023-02-18T00:21:35.934Z,4.60
2023-02-18T00:24:10.184Z,4.00
2023-02-18T00:26:45.870Z,4.40
2023-02-18T00:29:18.056Z,4.40
2023-02-18T00:31:46.221Z,5.40
2023-02-18T00:34:14.362Z,5.10
2023-02-18T00:36:42.722Z,5.20
2023-02-18T00:39:12.227Z,5.50
2023-02-18T00:41:40.880Z,5.80
2023-02-18T00:44:09.066Z,4.70
2023-02-18T00:46:37.438Z,5.90
2023-02-18T00:49:05.381Z,4.80
2023-02-18T00:51:33.543Z,4.10
2023-02-18T00:54:01.616Z,4.20
2023-02-18T00:56:29.287Z,3.80
2023-02-18T00:58:57.059Z,4.20
2023-02-18T01:01:31.005Z,3.20
2023-02-18T01:03:58.931Z,4.10
2023-02-18T01:06:26.666Z,4.20
2023-02-18T01:08:54.310Z,3.90
2023-02-18T01:11:22.990Z,4.30
2023-02-18T01:13:52.044Z,3.80
2023-02-18T01:16:20.662Z,3.40
2023-02-18T01:18:48.348Z,3.00
2023-02-18T01:21:16.198Z,3.50
2023-02-18T01:23:44.127Z,3.70
2023-02-18T01:26:12.222Z,4.90
2023-02-18T01:28:40.904Z,3.70
2023-02-18T01:31:10.130Z,3.70
2023-02-18T01:33:38.163Z,3.70
2023-02-18T01:36:06.469Z,3.70
2023-02-18T01:38:34.687Z,2.90
2023-02-18T01:41:03.291Z,3.50
2023-02-18T01:43:31.224Z,3.80
2023-02-18T01:45:59.050Z,4.00
2023-02-18T01:48:39.513Z,2.90
2023-02-18T01:51:11.655Z,3.60
2023-02-18T01:53:46.783Z,2.90
2023-02-18T01:56:19.019Z,3.40
2023-02-18T01:58:47.726Z,3.90
2023-02-18T02:01:15.573Z,3.50
2023-02-18T02:03:49.893Z,4.10
2023-02-18T02:06:18.898Z,3.10
2023-02-18T02:08:51.532Z,4.00
2023-02-18T02:11:39.569Z,3.20
2023-02-18T02:14:17.566Z,3.50
2023-02-18T02:17:01.440Z,4.20
2023-02-18T02:19:41.126Z,4.30
2023-02-18T02:22:18.454Z,3.50
2023-02-18T02:24:52.469Z,3.70
2023-02-18T02:27:46.909Z,3.90
2023-02-18T02:30:21.764Z,3.30
2023-02-18T02:32:49.577Z,3.00
2023-02-18T02:35:20.060Z,4.00
2023-02-18T02:37:50.593Z,3.20
2023-02-18T02:40:26.628Z,4.20
2023-02-18T02:43:02.212Z,3.60
2023-02-18T02:45:36.241Z,4.10
2023-02-18T02:50:45.437Z,3.40
2023-02-18T02:53:17.376Z,4.40
2023-02-18T02:55:45.125Z,3.80
2023-02-18T02:58:14.928Z,3.30
2023-02-18T03:00:57.355Z,4.10
2023-02-18T03:03:52.590Z,3.90
2023-02-18T03:06:40.868Z,3.10
2023-02-18T03:09:15.315Z,4.00
2023-02-18T03:11:58.536Z,4.20
2023-02-18T03:14:44.777Z,3.70
2023-02-18T03:17:16.717Z,3.30
2023-02-18T03:19:50.185Z,3.50
2023-02-18T03:22:17.896Z,3.50
2023-02-18T03:24:50.535Z,4.20
2023-02-18T03:27:27.299Z,3.90
2023-02-18T03:30:01.700Z,4.10
2023-02-18T03:32:31.528Z,3.40
2023-02-18T03:35:02.060Z,4.30
2023-02-18T03:37:32.188Z,3.50
2023-02-18T03:40:00.943Z,3.70
2023-02-18T03:42:29.654Z,3.80
2023-02-18T03:44:57.376Z,4.50
2023-02-18T03:47:25.278Z,4.40
2023-02-18T03:49:53.091Z,3.50
2023-02-18T03:52:21.529Z,4.00
2023-02-18T03:54:51.139Z,3.10
2023-02-18T03:57:18.994Z,4.10
2023-02-18T03:59:47.023Z,4.80
2023-02-18T04:02:14.751Z,3.00
2023-02-18T04:04:44.834Z,3.60
2023-02-18T04:07:12.624Z,4.00
2023-02-18T04:09:40.572Z,3.90
2023-02-18T04:12:12.163Z,4.10
2023-02-18T04:14:46.770Z,3.50
2023-02-18T04:17:18.441Z,3.00
2023-02-18T04:19:46.106Z,3.80
2023-02-18T04:22:13.928Z,4.00
2023-02-18T04:24:41.612Z,3.90
2023-02-18T04:27:09.346Z,4.00
2023-02-18T04:29:37.508Z,3.20
2023-02-18T04:32:05.904Z,4.70
2023-02-18T04:34:33.597Z,3.40
2023-02-18T04:37:01.293Z,3.90
2023-02-18T04:39:29.069Z,3.70
2023-02-18T04:41:56.934Z,3.60
2023-02-18T04:44:24.753Z,3.70
2023-02-18T04:46:52.430Z,3.20
2023-02-18T04:49:20.093Z,3.80
2023-02-18T04:51:47.801Z,3.20
2023-02-18T04:54:19.574Z,3.70
2023-02-18T04:56:47.204Z,3.70
2023-02-18T04:59:15.180Z,2.80
2023-02-18T05:01:43.018Z,3.80
2023-02-18T05:04:10.882Z,4.00
2023-02-18T05:06:40.049Z,2.70
2023-02-18T05:09:07.884Z,3.80
2023-02-18T05:11:36.062Z,4.30
2023-02-18T05:14:03.782Z,4.50
2023-02-18T05:16:38.296Z,3.30
2023-02-18T05:19:10.055Z,3.90
2023-02-18T05:21:37.743Z,3.20
2023-02-18T05:24:05.543Z,3.50
2023-02-18T05:26:33.256Z,3.20
2023-02-18T05:29:01.200Z,3.30
2023-02-18T05:31:28.939Z,2.70
2023-02-18T05:34:11.223Z,3.30
2023-02-18T05:36:39.033Z,3.60
2023-02-18T05:39:06.866Z,3.50
2023-02-18T05:41:34.572Z,4.40
2023-02-18T05:44:20.976Z,4.00
2023-02-18T05:46:48.642Z,3.50
2023-02-18T05:49:16.418Z,3.00
2023-02-18T05:51:44.162Z,3.30
2023-02-18T05:54:11.918Z,3.90
2023-02-18T05:56:39.620Z,4.40
2023-02-18T05:59:07.419Z,4.70
2023-02-18T06:01:41.798Z,3.70
2023-02-18T06:04:10.082Z,4.30
2023-02-18T06:06:37.749Z,4.00
2023-02-18T06:09:06.398Z,3.20
2023-02-18T06:11:34.178Z,4.40
2023-02-18T06:14:02.248Z,3.80
2023-02-18T06:16:30.740Z,4.30
2023-02-18T06:18:59.318Z,4.10
2023-02-18T06:21:27.251Z,4.00
2023-02-18T06:23:55.049Z,2.80
2023-02-18T06:26:23.132Z,3.70
2023-02-18T06:28:55.119Z,4.20
2023-02-18T06:31:23.221Z,3.40
2023-02-18T06:33:51.117Z,3.50
2023-02-18T06:36:19.237Z,4.40
2023-02-18T06:38:47.345Z,4.00
2023-02-18T06:41:15.217Z,4.70
2023-02-18T06:43:42.984Z,4.80
2023-02-18T06:46:11.056Z,5.00
2023-02-18T06:48:39.161Z,3.40
2023-02-18T06:51:06.950Z,3.90
2023-02-18T06:53:34.751Z,4.90
2023-02-18T06:56:02.506Z,4.40
2023-02-18T06:58:30.369Z,4.40
2023-02-18T07:00:59.689Z,4.40
2023-02-18T07:03:27.848Z,4.80
2023-02-18T07:06:02.783Z,4.60
2023-02-18T07:08:31.094Z,4.90
2023-02-18T07:10:58.890Z,5.40
2023-02-18T07:13:26.718Z,4.40
2023-02-18T07:15:54.791Z,5.30
2023-02-18T07:18:22.737Z,5.50
2023-02-18T07:20:50.914Z,4.40
2023-02-18T07:23:19.191Z,5.10
2023-02-18T07:25:47.344Z,4.00
2023-02-18T07:28:16.551Z,5.80
2023-02-18T07:30:44.334Z,4.80
2023-02-18T07:33:14.155Z,5.60
2023-02-18T07:35:42.509Z,4.40
2023-02-18T07:38:10.582Z,4.90
2023-02-18T07:40:39.490Z,4.40
2023-02-18T07:43:09.060Z,5.80
2023-02-18T07:45:38.682Z,4.60
2023-02-18T07:48:07.263Z,3.90
2023-02-18T07:50:39.628Z,5.60
2023-02-18T07:53:08.064Z,5.70
2023-02-18T07:55:51.645Z,4.90
2023-02-18T07:58:25.129Z,4.30
2023-02-18T08:00:56.476Z,5.30
2023-02-18T08:03:28.912Z,4.90
2023-02-18T08:05:57.630Z,5.80
2023-02-18T08:08:26.547Z,5.60
2023-02-18T08:10:56.374Z,5.50
2023-02-18T08:13:24.626Z,6.40
2023-02-18T08:15:54.556Z,5.40
2023-02-18T08:18:28.550Z,5.80
2023-02-18T08:20:57.496Z,5.70
2023-02-18T08:23:26.603Z,4.80
2023-02-18T08:25:54.616Z,5.90
2023-02-18T08:28:23.952Z,4.90
2023-02-18T08:30:53.181Z,5.70
2023-02-18T08:33:21.687Z,7.80
2023-02-18T08:35:50.906Z,7.60
2023-02-18T08:38:19.104Z,7.10
2023-02-18T08:40:48.221Z,5.50
2023-02-18T08:43:16.944Z,6.50
2023-02-18T08:45:46.232Z,5.60
2023-02-18T08:48:19.663Z,5.50
2023-02-18T08:50:48.568Z,3.90
2023-02-18T08:53:16.823Z,6.50
2023-02-18T08:55:45.006Z,6.10
2023-02-18T08:58:15.540Z,5.90
2023-02-18T09:00:44.121Z,5.20
2023-02-18T09:03:15.482Z,5.40
2023-02-18T09:05:43.895Z,4.20
2023-02-18T09:08:11.886Z,4.20
2023-02-18T09:10:40.404Z,6.20
2023-02-18T09:13:10.290Z,7.30
2023-02-18T09:15:41.373Z,5.50
2023-02-18T09:18:36.621Z,6.50
2023-02-18T09:21:07.594Z,5.80
2023-02-18T09:23:39.564Z,5.20
2023-02-18T09:26:09.636Z,5.60
2023-02-18T09:28:38.245Z,5.30
2023-02-18T09:31:08.100Z,6.20
2023-02-18T09:33:38.908Z,6.70
2023-02-18T09:36:08.437Z,5.90
2023-02-18T09:38:39.847Z,11.80
2023-02-18T09:41:11.465Z,5.40
2023-02-18T09:43:45.355Z,4.50
2023-02-18T09:46:22.795Z,6.20
2023-02-18T09:49:20.305Z,6.30
2023-02-18T09:51:49.346Z,5.40
2023-02-18T09:54:19.505Z,5.90
2023-02-18T09:56:54.071Z,4.10
2023-02-18T09:59:24.285Z,6.00
2023-02-18T10:02:02.417Z,4.10
2023-02-18T10:04:38.696Z,6.40
2023-02-18T10:07:07.134Z,5.20
2023-02-18T10:09:35.974Z,5.40
2023-02-18T10:12:17.567Z,5.80
2023-02-18T10:14:48.863Z,5.40
2023-02-18T10:17:18.434Z,6.10
2023-02-18T10:19:47.617Z,7.30
2023-02-18T10:22:16.576Z,5.40
2023-02-18T10:24:48.430Z,5.10
2023-02-18T10:27:18.729Z,6.30
2023-02-18T10:29:46.830Z,6.80
2023-02-18T10:32:28.306Z,6.50
2023-02-18T10:35:07.301Z,6.00
2023-02-18T10:37:58.564Z,6.40
2023-02-18T10:40:33.667Z,6.20
2023-02-18T10:43:04.378Z,6.00
2023-02-18T10:45:51.054Z,5.20
2023-02-18T10:48:22.443Z,5.30
2023-02-18T10:50:50.614Z,5.70
2023-02-18T10:53:36.025Z,5.50
2023-02-18T10:56:05.880Z,5.80
2023-02-18T10:58:35.692Z,5.30
2023-02-18T11:01:15.021Z,4.30
2023-02-18T11:03:44.452Z,5.60
2023-02-18T11:06:26.016Z,6.00
2023-02-18T11:08:54.970Z,6.20
2023-02-18T11:11:40.090Z,4.70
2023-02-18T11:16:56.792Z,5.30
2023-02-18T11:19:33.040Z,4.70
2023-02-18T11:22:20.879Z,5.30
2023-02-18T11:24:50.309Z,5.00
2023-02-18T11:27:21.737Z,5.80
2023-02-18T11:29:52.238Z,5.30
2023-02-18T11:32:20.422Z,4.80
2023-02-18T11:34:49.709Z,5.00
2023-02-18T11:37:19.533Z,6.20
2023-02-18T11:39:49.575Z,7.20
2023-02-18T11:42:37.454Z,6.40
2023-02-18T11:45:05.840Z,5.80
2023-02-18T11:47:34.574Z,8.30
2023-02-18T11:50:08.509Z,7.20
2023-02-18T11:52:38.365Z,7.40
2023-02-18T11:55:07.426Z,9.00
2023-02-18T11:57:37.197Z,6.40
2023-02-18T12:00:15.165Z,6.00
2023-02-18T12:02:42.971Z,7.30
2023-02-18T12:05:22.553Z,6.70
2023-02-18T12:08:01.369Z,6.10
2023-02-18T12:10:34.478Z,7.00
2023-02-18T12:13:05.546Z,6.90
2023-02-18T12:15:45.188Z,6.30
2023-02-18T12:18:24.969Z,4.90
2023-02-18T12:21:09.861Z,5.80
2023-02-18T12:23:37.806Z,5.70
2023-02-18T12:26:08.613Z,6.20
2023-02-18T12:28:55.975Z,5.70
2023-02-18T12:32:01.305Z,6.60
2023-02-18T12:37:15.072Z,5.70
2023-02-18T12:39:45.830Z,5.00
2023-02-18T12:42:22.270Z,5.70
2023-02-18T12:45:09.194Z,6.40
2023-02-18T12:47:56.390Z,6.40
2023-02-18T12:50:42.920Z,5.60
2023-02-18T12:53:29.359Z,6.50
2023-02-18T12:56:16.231Z,10.40
2023-02-18T12:58:49.980Z,5.50
2023-02-18T13:01:33.308Z,5.40
2023-02-18T13:04:04.712Z,5.50
2023-02-18T13:06:35.520Z,4.70
2023-02-18T13:09:03.239Z,4.90
2023-02-18T13:11:36.750Z,5.10
2023-02-18T13:14:10.872Z,5.70
2023-02-18T13:16:40.939Z,6.60
2023-02-18T13:19:11.712Z,6.10
2023-02-18T13:21:40.807Z,5.50
2023-02-18T13:24:13.580Z,5.00
2023-02-18T13:26:43.912Z,5.30
2023-02-18T13:29:18.149Z,5.50
2023-02-18T13:32:08.314Z,6.00
2023-02-18T13:34:43.110Z,6.10
2023-02-18T13:37:17.369Z,4.10
2023-02-18T13:39:53.096Z,6.50
2023-02-18T13:42:28.963Z,6.10
2023-02-18T13:44:57.414Z,5.00
2023-02-18T13:47:42.807Z,5.70
2023-02-18T13:50:34.453Z,5.00
2023-02-18T13:53:08.010Z,4.70
2023-02-18T13:55:42.177Z,4.90
2023-02-18T14:00:43.067Z,6.90
2023-02-18T14:03:33.701Z,5.50
2023-02-18T14:06:34.402Z,6.70
2023-02-18T14:09:14.533Z,8.50
2023-02-18T14:11:47.517Z,8.50
2023-02-18T14:14:33.215Z,6.10
2023-02-18T14:17:18.635Z,10.30
2023-02-18T14:19:55.745Z,8.80
2023-02-18T14:22:29.356Z,6.70
2023-02-18T14:25:04.837Z,6.10
2023-02-18T14:27:37.390Z,7.20
2023-02-18T14:30:25.675Z,7.20
2023-02-18T14:32:57.406Z,6.10
2023-02-18T14:35:44.934Z,5.50
2023-02-18T14:38:21.575Z,4.30
2023-02-18T14:40:58.565Z,3.70
2023-02-18T14:43:47.565Z,4.50
2023-02-18T14:46:36.411Z,3.80
2023-02-18T14:49:04.576Z,4.00
2023-02-18T14:51:34.074Z,3.10
2023-02-18T14:54:06.908Z,3.20
2023-02-18T14:56:38.720Z,4.50
2023-02-18T14:59:11.152Z,3.80
2023-02-18T15:01:40.945Z,4.60
2023-02-18T15:04:14.019Z,4.70
2023-02-18T15:06:42.345Z,6.20
2023-02-18T15:09:13.509Z,6.10
2023-02-18T15:11:45.078Z,5.00
2023-02-18T15:14:21.884Z,6.90
2023-02-18T15:16:53.950Z,5.10
2023-02-18T15:19:28.902Z,4.20
2023-02-18T15:22:00.940Z,5.20
2023-02-18T15:24:36.756Z,6.10
2023-02-18T15:27:11.512Z,4.50
2023-02-18T15:29:40.533Z,6.20
2023-02-18T15:32:16.713Z,5.30
2023-02-18T15:34:46.229Z,5.00
2023-02-18T15:37:38.793Z,6.40
2023-02-18T15:40:12.988Z,4.50
2023-02-18T15:45:20.784Z,6.60
2023-02-18T15:47:50.340Z,6.20
2023-02-18T15:50:20.625Z,5.30
2023-02-18T15:52:49.833Z,5.70
2023-02-18T15:55:27.138Z,7.40
2023-02-18T15:57:56.621Z,5.90
2023-02-18T16:00:36.924Z,5.10
2023-02-18T16:03:12.559Z,5.00
2023-02-18T16:05:42.893Z,4.60
2023-02-18T16:08:15.542Z,4.90
2023-02-18T16:10:54.429Z,9.40
2023-02-18T16:13:26.913Z,6.20
2023-02-18T16:15:55.126Z,7.70
2023-02-18T16:18:26.307Z,8.70
2023-02-18T16:21:01.481Z,3.80
2023-02-18T16:23:33.309Z,4.60
2023-02-18T16:26:25.030Z,4.30
2023-02-18T16:28:53.682Z,5.80
2023-02-18T16:31:22.541Z,5.10
2023-02-18T16:33:50.737Z,5.00
2023-02-18T16:36:19.242Z,5.00
2023-02-18T16:38:47.225Z,4.40
2023-02-18T16:41:15.233Z,4.80
2023-02-18T16:43:43.334Z,4.40
2023-02-18T16:46:15.848Z,5.30
2023-02-18T16:48:45.640Z,4.20
2023-02-18T16:51:19.212Z,5.70
2023-02-18T16:53:47.792Z,5.10
2023-02-18T16:56:18.188Z,5.80
2023-02-18T16:58:48.925Z,6.30
2023-02-18T17:01:29.223Z,5.00
2023-02-18T17:03:57.700Z,5.00
2023-02-18T17:06:32.778Z,7.20
2023-02-18T17:09:00.940Z,9.10
2023-02-18T17:11:30.202Z,7.20
2023-02-18T17:13:59.541Z,8.20
2023-02-18T17:16:28.952Z,7.30
2023-02-18T17:18:57.334Z,16.30
2023-02-18T17:21:26.658Z,11.70
2023-02-18T17:23:55.058Z,7.90
2023-02-18T17:26:25.413Z,8.00
2023-02-18T17:28:57.004Z,10.30
2023-02-18T17:31:26.191Z,7.10
2023-02-18T17:33:54.742Z,8.00
2023-02-18T17:36:23.117Z,6.30
2023-02-18T17:38:53.247Z,6.80
2023-02-18T17:41:22.218Z,6.90
2023-02-18T17:43:51.118Z,7.30
2023-02-18T17:46:20.070Z,7.60
2023-02-18T17:48:48.605Z,6.50
2023-02-18T17:51:25.330Z,5.90
2023-02-18T17:53:54.118Z,4.90
2023-02-18T17:56:22.338Z,6.30
2023-02-18T17:58:51.829Z,6.20
2023-02-18T18:01:23.250Z,5.40
2023-02-18T18:03:51.316Z,6.20
2023-02-18T18:06:20.228Z,6.00
2023-02-18T18:08:48.662Z,5.20
2023-02-18T18:11:19.897Z,6.10
2023-02-18T18:13:48.334Z,6.20
2023-02-18T18:16:17.632Z,5.50
2023-02-18T18:18:45.413Z,5.10
2023-02-18T18:21:21.541Z,5.00
2023-02-18T18:23:51.464Z,5.20
2023-02-18T18:26:19.294Z,5.30
2023-02-18T18:28:47.241Z,6.00
2023-02-18T18:31:19.286Z,6.30
2023-02-18T18:33:53.200Z,6.40
2023-02-18T18:36:24.362Z,6.50
2023-02-18T18:38:52.648Z,5.90
2023-02-18T18:41:22.091Z,5.90
2023-02-18T18:43:50.292Z,8.10
2023-02-18T18:46:19.400Z,5.20
2023-02-18T18:48:54.361Z,6.40
2023-02-18T18:51:28.827Z,5.10
2023-02-18T18:53:58.298Z,6.20
2023-02-18T18:56:26.489Z,5.90
2023-02-18T18:58:55.327Z,5.00
2023-02-18T19:01:27.006Z,6.10
2023-02-18T19:03:56.271Z,6.50
2023-02-18T19:06:23.962Z,5.60
2023-02-18T19:08:51.863Z,6.40
2023-02-18T19:11:20.353Z,7.30
2023-02-18T19:13:48.381Z,6.80
2023-02-18T19:16:22.416Z,6.60
2023-02-18T19:18:50.590Z,8.30
2023-02-18T19:21:18.498Z,9.10
2023-02-18T19:23:46.359Z,10.70
2023-02-18T19:26:16.275Z,12.00
2023-02-18T19:28:45.234Z,10.90
2023-02-18T19:31:15.104Z,9.40
2023-02-18T19:33:45.683Z,13.70
2023-02-18T19:36:14.931Z,5.80
2023-02-18T19:38:42.999Z,5.00
2023-02-18T19:41:15.770Z,6.50
2023-02-18T19:43:45.097Z,5.00
2023-02-18T19:46:15.458Z,5.30
2023-02-18T19:48:47.439Z,5.20
2023-02-18T19:51:24.073Z,6.10
2023-02-18T19:53:52.444Z,5.20
2023-02-18T19:56:25.574Z,5.10
2023-02-18T19:58:57.896Z,6.70
2023-02-18T20:01:27.161Z,6.30
2023-02-18T20:03:55.425Z,5.90
2023-02-18T20:06:23.239Z,5.70
2023-02-18T20:08:54.084Z,6.80
2023-02-18T20:11:23.050Z,6.50
2023-02-18T20:13:50.962Z,6.70
2023-02-18T20:16:19.540Z,5.10
2023-02-18T20:18:49.159Z,5.50
2023-02-18T20:21:17.817Z,5.20
2023-02-18T20:23:45.755Z,5.50
2023-02-18T20:26:15.163Z,5.20
2023-02-18T20:28:45.238Z,5.70
2023-02-18T20:31:16.660Z,7.10
2023-02-18T20:33:45.415Z,6.70
2023-02-18T20:36:14.494Z,7.30
2023-02-18T20:38:42.818Z,6.90
2023-02-18T20:41:14.021Z,6.50
2023-02-18T20:43:48.551Z,6.60
2023-02-18T20:46:19.021Z,5.90
2023-02-18T20:48:47.048Z,5.50
2023-02-18T20:51:15.895Z,5.40
2023-02-18T20:53:44.460Z,5.60
2023-02-18T20:56:12.631Z,6.00
2023-02-18T20:58:41.018Z,5.40
2023-02-18T21:01:11.126Z,6.20
2023-02-18T21:03:39.404Z,6.50
2023-02-18T21:06:08.912Z,5.60
2023-02-18T21:08:40.498Z,7.00
2023-02-18T21:11:12.757Z,6.10
2023-02-18T21:13:41.314Z,7.30
2023-02-18T21:16:09.724Z,6.30
2023-02-18T21:18:37.844Z,5.60
2023-02-18T21:21:09.474Z,5.80
2023-02-18T21:23:38.534Z,6.40
2023-02-18T21:26:08.015Z,6.30
2023-02-18T21:28:36.224Z,6.10
2023-02-18T21:31:04.361Z,5.40
2023-02-18T21:33:32.321Z,5.50
2023-02-18T21:36:01.419Z,5.60
2023-02-18T21:38:29.162Z,6.00
2023-02-18T21:41:00.717Z,4.90
2023-02-18T21:43:28.509Z,4.90
2023-02-18T21:46:08.831Z,5.50
2023-02-18T21:51:57.014Z,6.20
2023-02-18T21:54:26.763Z,5.20
2023-02-18T21:56:55.095Z,5.40
2023-02-18T21:59:23.816Z,4.30
2023-02-18T22:01:51.589Z,5.90
2023-02-18T22:04:26.121Z,5.10
2023-02-18T22:07:01.333Z,4.70
2023-02-18T22:09:36.210Z,5.70
2023-02-18T22:12:08.430Z,5.90
2023-02-18T22:14:36.138Z,6.10
2023-02-18T22:17:04.465Z,5.10
2023-02-18T22:19:32.811Z,6.60
2023-02-18T22:22:02.886Z,5.60
2023-02-18T22:24:34.201Z,5.60
2023-02-18T22:27:09.230Z,5.60
2023-02-18T22:29:37.262Z,5.40
2023-02-18T22:32:05.224Z,6.00
2023-02-18T22:34:33.288Z,5.30
2023-02-18T22:37:01.092Z,4.80
2023-02-18T22:39:29.041Z,4.70
2023-02-18T22:41:57.585Z,4.70
2023-02-18T22:44:29.734Z,4.50
2023-02-18T22:47:03.436Z,4.80
2023-02-18T22:49:32.173Z,4.50
2023-02-18T22:51:59.896Z,4.10
2023-02-18T22:54:29.130Z,4.60
2023-02-18T22:56:56.888Z,4.50
2023-02-18T22:59:24.924Z,4.40
2023-02-18T23:01:53.570Z,5.80
2023-02-18T23:04:21.452Z,6.40
2023-02-18T23:06:51.295Z,4.60
2023-02-18T23:09:21.099Z,4.60
2023-02-18T23:11:53.765Z,4.40
2023-02-18T23:14:23.408Z,4.60
2023-02-18T23:17:13.064Z,4.50
2023-02-18T23:19:42.391Z,5.00
2023-02-18T23:22:11.386Z,4.10
2023-02-18T23:24:40.289Z,4.90
2023-02-18T23:27:10.016Z,4.80
2023-02-18T23:29:38.398Z,4.30
2023-02-18T23:32:06.620Z,5.80
2023-02-18T23:34:34.952Z,5.20
2023-02-18T23:37:02.586Z,4.90
2023-02-18T23:39:37.426Z,5.60
2023-02-18T23:42:05.238Z,5.00
2023-02-18T23:44:32.957Z,5.20
2023-02-18T23:47:00.637Z,3.70
2023-02-18T23:49:28.884Z,5.20
2023-02-18T23:51:57.173Z,4.40
2023-02-18T23:54:25.554Z,4.30
2023-02-18T23:56:53.245Z,5.20
2023-02-18T23:59:20.928Z,4.80
